sensor_id;sensor_type;location;lat;lon;timestamp;P1;durP1;ratioP1;P2;durP2;ratioP2
65831;SDS011;52593;42.648;23.332;2024-03-08T00:01:05;13.83;;;5.47;;
65831;SDS011;52593;42.648;23.332;2024-03-08T00:03:31;11.32;;;4.63;;
65831;SDS011;52593;42.648;23.332;2024-03-08T00:05:57;12.43;;;4.70;;
65831;SDS011;52593;42.648;23.332;2024-03-08T00:08:23;13.40;;;4.30;;
65831;SDS011;52593;42.648;23.332;2024-03-08T00:10:49;10.33;;;3.57;;
65831;SDS011;52593;42.648;23.332;2024-03-08T00:13:14;9.02;;;2.85;;
65831;SDS011;52593;42.648;23.332;2024-03-08T00:15:40;10.60;;;3.30;;
65831;SDS011;52593;42.648;23.332;2024-03-08T00:18:06;8.82;;;3.20;;
65831;SDS011;52593;42.648;23.332;2024-03-08T00:20:32;10.20;;;3.23;;
65831;SDS011;52593;42.648;23.332;2024-03-08T00:22:58;9.05;;;3.20;;
65831;SDS011;52593;42.648;23.332;2024-03-08T00:25:24;8.25;;;3.13;;
65831;SDS011;52593;42.648;23.332;2024-03-08T00:27:49;7.00;;;2.57;;
65831;SDS011;52593;42.648;23.332;2024-03-08T00:30:15;9.07;;;3.30;;
65831;SDS011;52593;42.648;23.332;2024-03-08T00:32:40;9.43;;;2.90;;
65831;SDS011;52593;42.648;23.332;2024-03-08T00:35:06;9.03;;;3.23;;
65831;SDS011;52593;42.648;23.332;2024-03-08T00:37:32;8.70;;;3.13;;
65831;SDS011;52593;42.648;23.332;2024-03-08T00:39:59;7.50;;;2.90;;
65831;SDS011;52593;42.648;23.332;2024-03-08T00:42:25;8.43;;;2.57;;
65831;SDS011;52593;42.648;23.332;2024-03-08T00:44:50;10.43;;;3.23;;
65831;SDS011;52593;42.648;23.332;2024-03-08T00:47:16;7.87;;;3.17;;
65831;SDS011;52593;42.648;23.332;2024-03-08T00:49:41;8.37;;;2.67;;
65831;SDS011;52593;42.648;23.332;2024-03-08T00:52:07;6.40;;;2.00;;
65831;SDS011;52593;42.648;23.332;2024-03-08T00:54:36;7.93;;;3.00;;
65831;SDS011;52593;42.648;23.332;2024-03-08T00:57:02;6.47;;;1.98;;
65831;SDS011;52593;42.648;23.332;2024-03-08T00:59:29;7.85;;;2.50;;
65831;SDS011;52593;42.648;23.332;2024-03-08T01:01:55;7.43;;;2.40;;
65831;SDS011;52593;42.648;23.332;2024-03-08T01:04:21;6.35;;;2.35;;
65831;SDS011;52593;42.648;23.332;2024-03-08T01:06:48;6.20;;;1.80;;
65831;SDS011;52593;42.648;23.332;2024-03-08T01:09:13;5.83;;;1.63;;
65831;SDS011;52593;42.648;23.332;2024-03-08T01:11:39;4.63;;;1.70;;
65831;SDS011;52593;42.648;23.332;2024-03-08T01:14:05;5.57;;;1.90;;
65831;SDS011;52593;42.648;23.332;2024-03-08T01:16:30;5.30;;;1.60;;
65831;SDS011;52593;42.648;23.332;2024-03-08T01:18:58;5.43;;;1.47;;
65831;SDS011;52593;42.648;23.332;2024-03-08T01:21:24;4.72;;;1.38;;
65831;SDS011;52593;42.648;23.332;2024-03-08T01:23:49;7.57;;;1.60;;
65831;SDS011;52593;42.648;23.332;2024-03-08T01:26:15;4.28;;;1.33;;
65831;SDS011;52593;42.648;23.332;2024-03-08T01:28:41;4.17;;;1.17;;
65831;SDS011;52593;42.648;23.332;2024-03-08T01:31:06;4.38;;;1.30;;
65831;SDS011;52593;42.648;23.332;2024-03-08T01:33:32;4.53;;;1.60;;
65831;SDS011;52593;42.648;23.332;2024-03-08T01:35:58;4.43;;;1.00;;
65831;SDS011;52593;42.648;23.332;2024-03-08T01:38:23;4.80;;;1.30;;
65831;SDS011;52593;42.648;23.332;2024-03-08T01:40:51;5.03;;;1.37;;
65831;SDS011;52593;42.648;23.332;2024-03-08T01:43:18;5.38;;;1.35;;
65831;SDS011;52593;42.648;23.332;2024-03-08T01:45:43;5.75;;;1.40;;
65831;SDS011;52593;42.648;23.332;2024-03-08T01:48:09;4.60;;;1.20;;
65831;SDS011;52593;42.648;23.332;2024-03-08T01:50:35;5.10;;;1.33;;
65831;SDS011;52593;42.648;23.332;2024-03-08T01:53:01;4.72;;;1.38;;
65831;SDS011;52593;42.648;23.332;2024-03-08T01:55:28;4.32;;;1.40;;
65831;SDS011;52593;42.648;23.332;2024-03-08T01:57:53;4.70;;;1.47;;
65831;SDS011;52593;42.648;23.332;2024-03-08T02:00:20;5.03;;;1.45;;
65831;SDS011;52593;42.648;23.332;2024-03-08T02:02:46;4.80;;;1.60;;
65831;SDS011;52593;42.648;23.332;2024-03-08T02:05:12;4.27;;;1.57;;
65831;SDS011;52593;42.648;23.332;2024-03-08T02:07:40;4.20;;;1.42;;
65831;SDS011;52593;42.648;23.332;2024-03-08T02:10:09;4.95;;;1.60;;
65831;SDS011;52593;42.648;23.332;2024-03-08T02:12:37;4.95;;;1.38;;
65831;SDS011;52593;42.648;23.332;2024-03-08T02:15:03;4.97;;;1.77;;
65831;SDS011;52593;42.648;23.332;2024-03-08T02:17:31;6.40;;;1.30;;
65831;SDS011;52593;42.648;23.332;2024-03-08T02:19:58;4.68;;;1.13;;
65831;SDS011;52593;42.648;23.332;2024-03-08T02:22:26;6.38;;;1.75;;
65831;SDS011;52593;42.648;23.332;2024-03-08T02:24:53;4.30;;;1.38;;
65831;SDS011;52593;42.648;23.332;2024-03-08T02:27:23;6.20;;;1.93;;
65831;SDS011;52593;42.648;23.332;2024-03-08T02:29:56;5.55;;;1.60;;
65831;SDS011;52593;42.648;23.332;2024-03-08T02:32:22;5.43;;;1.63;;
65831;SDS011;52593;42.648;23.332;2024-03-08T02:34:48;6.38;;;1.95;;
65831;SDS011;52593;42.648;23.332;2024-03-08T02:37:14;6.13;;;1.67;;
65831;SDS011;52593;42.648;23.332;2024-03-08T02:39:40;6.38;;;1.77;;
65831;SDS011;52593;42.648;23.332;2024-03-08T02:42:06;4.30;;;1.10;;
65831;SDS011;52593;42.648;23.332;2024-03-08T02:44:32;4.55;;;1.50;;
65831;SDS011;52593;42.648;23.332;2024-03-08T02:46:58;4.83;;;1.43;;
65831;SDS011;52593;42.648;23.332;2024-03-08T02:49:25;4.28;;;1.40;;
65831;SDS011;52593;42.648;23.332;2024-03-08T02:51:51;4.10;;;1.10;;
65831;SDS011;52593;42.648;23.332;2024-03-08T02:54:17;4.40;;;1.05;;
65831;SDS011;52593;42.648;23.332;2024-03-08T02:56:44;4.57;;;1.30;;
65831;SDS011;52593;42.648;23.332;2024-03-08T02:59:11;5.67;;;1.60;;
65831;SDS011;52593;42.648;23.332;2024-03-08T03:01:37;6.70;;;1.58;;
65831;SDS011;52593;42.648;23.332;2024-03-08T03:04:03;4.47;;;1.17;;
65831;SDS011;52593;42.648;23.332;2024-03-08T03:06:29;4.17;;;1.10;;
65831;SDS011;52593;42.648;23.332;2024-03-08T03:08:54;4.18;;;1.10;;
65831;SDS011;52593;42.648;23.332;2024-03-08T03:11:22;3.50;;;1.03;;
65831;SDS011;52593;42.648;23.332;2024-03-08T03:13:48;3.38;;;0.90;;
65831;SDS011;52593;42.648;23.332;2024-03-08T03:16:19;3.63;;;0.80;;
65831;SDS011;52593;42.648;23.332;2024-03-08T03:18:45;3.90;;;0.70;;
65831;SDS011;52593;42.648;23.332;2024-03-08T03:21:12;3.15;;;0.80;;
65831;SDS011;52593;42.648;23.332;2024-03-08T03:23:38;4.05;;;0.90;;
65831;SDS011;52593;42.648;23.332;2024-03-08T03:26:09;2.80;;;0.70;;
65831;SDS011;52593;42.648;23.332;2024-03-08T03:28:38;2.43;;;0.47;;
65831;SDS011;52593;42.648;23.332;2024-03-08T03:31:07;3.08;;;0.70;;
65831;SDS011;52593;42.648;23.332;2024-03-08T03:33:35;2.47;;;0.60;;
65831;SDS011;52593;42.648;23.332;2024-03-08T03:36:02;3.47;;;0.68;;
65831;SDS011;52593;42.648;23.332;2024-03-08T03:38:28;3.70;;;0.68;;
65831;SDS011;52593;42.648;23.332;2024-03-08T03:40:53;4.80;;;0.93;;
65831;SDS011;52593;42.648;23.332;2024-03-08T03:43:22;3.38;;;0.70;;
65831;SDS011;52593;42.648;23.332;2024-03-08T03:45:51;3.07;;;0.73;;
65831;SDS011;52593;42.648;23.332;2024-03-08T03:48:16;3.17;;;0.75;;
65831;SDS011;52593;42.648;23.332;2024-03-08T03:50:41;3.00;;;0.60;;
65831;SDS011;52593;42.648;23.332;2024-03-08T03:53:07;3.40;;;1.00;;
65831;SDS011;52593;42.648;23.332;2024-03-08T03:55:33;3.35;;;0.90;;
65831;SDS011;52593;42.648;23.332;2024-03-08T03:57:59;2.58;;;0.70;;
65831;SDS011;52593;42.648;23.332;2024-03-08T04:00:26;4.28;;;1.15;;
65831;SDS011;52593;42.648;23.332;2024-03-08T04:02:52;3.17;;;0.80;;
65831;SDS011;52593;42.648;23.332;2024-03-08T04:05:17;3.40;;;0.80;;
65831;SDS011;52593;42.648;23.332;2024-03-08T04:07:43;2.60;;;0.60;;
65831;SDS011;52593;42.648;23.332;2024-03-08T04:10:10;4.28;;;0.70;;
65831;SDS011;52593;42.648;23.332;2024-03-08T04:12:36;3.63;;;0.70;;
65831;SDS011;52593;42.648;23.332;2024-03-08T04:15:02;2.83;;;0.70;;
65831;SDS011;52593;42.648;23.332;2024-03-08T04:17:28;3.13;;;0.80;;
65831;SDS011;52593;42.648;23.332;2024-03-08T04:19:54;3.33;;;0.90;;
65831;SDS011;52593;42.648;23.332;2024-03-08T04:22:19;3.63;;;0.90;;
65831;SDS011;52593;42.648;23.332;2024-03-08T04:24:45;3.45;;;0.80;;
65831;SDS011;52593;42.648;23.332;2024-03-08T04:27:11;3.03;;;0.73;;
65831;SDS011;52593;42.648;23.332;2024-03-08T04:29:37;3.13;;;0.80;;
65831;SDS011;52593;42.648;23.332;2024-03-08T04:32:03;3.20;;;0.70;;
65831;SDS011;52593;42.648;23.332;2024-03-08T04:34:29;3.40;;;0.80;;
65831;SDS011;52593;42.648;23.332;2024-03-08T04:36:57;3.30;;;1.00;;
65831;SDS011;52593;42.648;23.332;2024-03-08T04:39:23;2.08;;;0.40;;
65831;SDS011;52593;42.648;23.332;2024-03-08T04:41:49;3.60;;;0.80;;
65831;SDS011;52593;42.648;23.332;2024-03-08T04:44:15;3.50;;;0.80;;
65831;SDS011;52593;42.648;23.332;2024-03-08T04:46:42;2.83;;;0.90;;
65831;SDS011;52593;42.648;23.332;2024-03-08T04:49:08;3.35;;;0.75;;
65831;SDS011;52593;42.648;23.332;2024-03-08T04:51:33;5.10;;;1.03;;
65831;SDS011;52593;42.648;23.332;2024-03-08T04:53:59;4.27;;;0.77;;
65831;SDS011;52593;42.648;23.332;2024-03-08T04:56:25;4.32;;;1.30;;
65831;SDS011;52593;42.648;23.332;2024-03-08T04:58:50;4.67;;;1.27;;
65831;SDS011;52593;42.648;23.332;2024-03-08T05:01:16;3.72;;;1.10;;
65831;SDS011;52593;42.648;23.332;2024-03-08T05:03:42;3.60;;;0.90;;
65831;SDS011;52593;42.648;23.332;2024-03-08T05:06:07;3.63;;;1.00;;
65831;SDS011;52593;42.648;23.332;2024-03-08T05:08:33;4.00;;;1.10;;
65831;SDS011;52593;42.648;23.332;2024-03-08T05:10:59;3.60;;;1.10;;
65831;SDS011;52593;42.648;23.332;2024-03-08T05:13:29;5.00;;;0.90;;
65831;SDS011;52593;42.648;23.332;2024-03-08T05:15:56;3.83;;;1.20;;
65831;SDS011;52593;42.648;23.332;2024-03-08T05:18:23;5.05;;;1.20;;
65831;SDS011;52593;42.648;23.332;2024-03-08T05:20:49;4.10;;;1.10;;
65831;SDS011;52593;42.648;23.332;2024-03-08T05:23:16;5.15;;;1.38;;
65831;SDS011;52593;42.648;23.332;2024-03-08T05:25:41;4.13;;;1.17;;
65831;SDS011;52593;42.648;23.332;2024-03-08T05:28:07;4.43;;;1.30;;
65831;SDS011;52593;42.648;23.332;2024-03-08T05:30:33;4.50;;;1.40;;
65831;SDS011;52593;42.648;23.332;2024-03-08T05:33:01;4.22;;;1.38;;
65831;SDS011;52593;42.648;23.332;2024-03-08T05:35:26;6.40;;;1.93;;
65831;SDS011;52593;42.648;23.332;2024-03-08T05:37:52;5.30;;;1.65;;
65831;SDS011;52593;42.648;23.332;2024-03-08T05:40:17;6.70;;;1.80;;
65831;SDS011;52593;42.648;23.332;2024-03-08T05:42:44;5.82;;;1.70;;
65831;SDS011;52593;42.648;23.332;2024-03-08T05:45:09;5.90;;;1.57;;
65831;SDS011;52593;42.648;23.332;2024-03-08T05:47:36;7.18;;;1.70;;
65831;SDS011;52593;42.648;23.332;2024-03-08T05:50:01;5.83;;;1.50;;
65831;SDS011;52593;42.648;23.332;2024-03-08T05:52:27;6.38;;;1.67;;
65831;SDS011;52593;42.648;23.332;2024-03-08T05:54:53;4.77;;;1.60;;
65831;SDS011;52593;42.648;23.332;2024-03-08T05:57:18;7.67;;;1.90;;
65831;SDS011;52593;42.648;23.332;2024-03-08T05:59:44;5.10;;;1.52;;
65831;SDS011;52593;42.648;23.332;2024-03-08T06:02:09;4.83;;;2.07;;
65831;SDS011;52593;42.648;23.332;2024-03-08T06:04:35;6.77;;;1.53;;
65831;SDS011;52593;42.648;23.332;2024-03-08T06:07:00;6.33;;;1.90;;
65831;SDS011;52593;42.648;23.332;2024-03-08T06:09:28;4.55;;;1.92;;
65831;SDS011;52593;42.648;23.332;2024-03-08T06:11:54;8.67;;;2.30;;
65831;SDS011;52593;42.648;23.332;2024-03-08T06:14:19;6.70;;;2.30;;
65831;SDS011;52593;42.648;23.332;2024-03-08T06:16:45;8.43;;;2.73;;
65831;SDS011;52593;42.648;23.332;2024-03-08T06:19:12;13.18;;;2.78;;
65831;SDS011;52593;42.648;23.332;2024-03-08T06:21:37;10.60;;;3.70;;
65831;SDS011;52593;42.648;23.332;2024-03-08T06:24:03;8.93;;;3.00;;
65831;SDS011;52593;42.648;23.332;2024-03-08T06:26:29;8.48;;;3.15;;
65831;SDS011;52593;42.648;23.332;2024-03-08T06:28:55;9.80;;;3.50;;
65831;SDS011;52593;42.648;23.332;2024-03-08T06:31:21;8.90;;;2.90;;
65831;SDS011;52593;42.648;23.332;2024-03-08T06:33:46;9.68;;;3.25;;
65831;SDS011;52593;42.648;23.332;2024-03-08T06:36:15;9.38;;;3.85;;
65831;SDS011;52593;42.648;23.332;2024-03-08T06:38:44;10.90;;;3.97;;
65831;SDS011;52593;42.648;23.332;2024-03-08T06:41:11;11.20;;;3.47;;
65831;SDS011;52593;42.648;23.332;2024-03-08T06:43:43;10.75;;;3.47;;
65831;SDS011;52593;42.648;23.332;2024-03-08T06:46:09;9.82;;;3.97;;
65831;SDS011;52593;42.648;23.332;2024-03-08T06:48:37;10.45;;;3.55;;
65831;SDS011;52593;42.648;23.332;2024-03-08T06:51:03;10.45;;;4.22;;
65831;SDS011;52593;42.648;23.332;2024-03-08T06:53:30;11.77;;;3.90;;
65831;SDS011;52593;42.648;23.332;2024-03-08T06:55:56;10.80;;;4.25;;
65831;SDS011;52593;42.648;23.332;2024-03-08T06:58:22;8.75;;;3.03;;
65831;SDS011;52593;42.648;23.332;2024-03-08T07:00:48;10.53;;;3.60;;
65831;SDS011;52593;42.648;23.332;2024-03-08T07:03:17;9.85;;;2.90;;
65831;SDS011;52593;42.648;23.332;2024-03-08T07:05:42;9.40;;;3.45;;
65831;SDS011;52593;42.648;23.332;2024-03-08T07:08:08;9.80;;;3.00;;
65831;SDS011;52593;42.648;23.332;2024-03-08T07:10:34;10.30;;;3.30;;
65831;SDS011;52593;42.648;23.332;2024-03-08T07:13:00;7.50;;;2.95;;
65831;SDS011;52593;42.648;23.332;2024-03-08T07:15:27;8.88;;;3.40;;
65831;SDS011;52593;42.648;23.332;2024-03-08T07:17:53;11.35;;;3.80;;
65831;SDS011;52593;42.648;23.332;2024-03-08T07:20:19;10.50;;;3.77;;
65831;SDS011;52593;42.648;23.332;2024-03-08T07:22:48;11.00;;;3.00;;
65831;SDS011;52593;42.648;23.332;2024-03-08T07:25:17;7.78;;;2.97;;
65831;SDS011;52593;42.648;23.332;2024-03-08T07:27:42;8.70;;;2.70;;
65831;SDS011;52593;42.648;23.332;2024-03-08T07:30:08;9.55;;;2.60;;
65831;SDS011;52593;42.648;23.332;2024-03-08T07:32:35;6.18;;;2.13;;
65831;SDS011;52593;42.648;23.332;2024-03-08T07:35:00;8.07;;;2.20;;
65831;SDS011;52593;42.648;23.332;2024-03-08T07:37:27;5.60;;;2.00;;
65831;SDS011;52593;42.648;23.332;2024-03-08T07:39:52;9.03;;;2.37;;
65831;SDS011;52593;42.648;23.332;2024-03-08T07:42:18;5.53;;;2.50;;
65831;SDS011;52593;42.648;23.332;2024-03-08T07:44:43;6.95;;;2.38;;
65831;SDS011;52593;42.648;23.332;2024-03-08T07:47:11;7.70;;;2.65;;
65831;SDS011;52593;42.648;23.332;2024-03-08T07:49:37;8.37;;;2.60;;
65831;SDS011;52593;42.648;23.332;2024-03-08T07:52:03;6.40;;;1.92;;
65831;SDS011;52593;42.648;23.332;2024-03-08T07:54:29;9.02;;;3.67;;
65831;SDS011;52593;42.648;23.332;2024-03-08T07:56:55;8.10;;;3.40;;
65831;SDS011;52593;42.648;23.332;2024-03-08T07:59:21;10.70;;;4.43;;
65831;SDS011;52593;42.648;23.332;2024-03-08T08:01:46;9.87;;;4.13;;
65831;SDS011;52593;42.648;23.332;2024-03-08T08:04:12;14.40;;;4.07;;
65831;SDS011;52593;42.648;23.332;2024-03-08T08:06:39;10.10;;;3.42;;
65831;SDS011;52593;42.648;23.332;2024-03-08T08:09:08;11.15;;;4.20;;
65831;SDS011;52593;42.648;23.332;2024-03-08T08:11:40;8.15;;;2.95;;
65831;SDS011;52593;42.648;23.332;2024-03-08T08:14:08;9.38;;;3.67;;
65831;SDS011;52593;42.648;23.332;2024-03-08T08:16:35;9.77;;;3.10;;
65831;SDS011;52593;42.648;23.332;2024-03-08T08:19:02;7.53;;;2.83;;
65831;SDS011;52593;42.648;23.332;2024-03-08T08:21:33;10.63;;;3.20;;
65831;SDS011;52593;42.648;23.332;2024-03-08T08:23:59;10.18;;;3.17;;
65831;SDS011;52593;42.648;23.332;2024-03-08T08:26:25;10.17;;;3.33;;
65831;SDS011;52593;42.648;23.332;2024-03-08T08:28:51;8.80;;;3.42;;
65831;SDS011;52593;42.648;23.332;2024-03-08T08:31:18;10.10;;;3.47;;
65831;SDS011;52593;42.648;23.332;2024-03-08T08:33:44;11.88;;;3.30;;
65831;SDS011;52593;42.648;23.332;2024-03-08T08:36:10;9.83;;;3.70;;
65831;SDS011;52593;42.648;23.332;2024-03-08T08:38:35;9.00;;;3.53;;
65831;SDS011;52593;42.648;23.332;2024-03-08T08:41:01;11.23;;;3.10;;
65831;SDS011;52593;42.648;23.332;2024-03-08T08:43:27;29.13;;;14.23;;
65831;SDS011;52593;42.648;23.332;2024-03-08T08:45:53;11.45;;;5.70;;
65831;SDS011;52593;42.648;23.332;2024-03-08T08:48:20;11.98;;;3.67;;
65831;SDS011;52593;42.648;23.332;2024-03-08T08:50:45;8.27;;;2.80;;
65831;SDS011;52593;42.648;23.332;2024-03-08T08:53:12;8.32;;;3.40;;
65831;SDS011;52593;42.648;23.332;2024-03-08T08:55:39;9.23;;;3.60;;
65831;SDS011;52593;42.648;23.332;2024-03-08T08:58:05;8.10;;;2.90;;
65831;SDS011;52593;42.648;23.332;2024-03-08T09:00:49;10.50;;;3.63;;
65831;SDS011;52593;42.648;23.332;2024-03-08T09:03:15;11.90;;;4.80;;
65831;SDS011;52593;42.648;23.332;2024-03-08T09:05:42;9.07;;;3.23;;
65831;SDS011;52593;42.648;23.332;2024-03-08T09:08:07;10.75;;;3.33;;
65831;SDS011;52593;42.648;23.332;2024-03-08T09:10:33;10.53;;;3.17;;
65831;SDS011;52593;42.648;23.332;2024-03-08T09:12:59;7.97;;;3.13;;
65831;SDS011;52593;42.648;23.332;2024-03-08T09:15:24;8.67;;;3.00;;
65831;SDS011;52593;42.648;23.332;2024-03-08T09:17:53;8.07;;;2.70;;
65831;SDS011;52593;42.648;23.332;2024-03-08T09:20:19;6.30;;;2.50;;
65831;SDS011;52593;42.648;23.332;2024-03-08T09:22:45;7.78;;;3.15;;
65831;SDS011;52593;42.648;23.332;2024-03-08T09:25:11;8.03;;;2.83;;
65831;SDS011;52593;42.648;23.332;2024-03-08T09:27:36;12.60;;;3.35;;
65831;SDS011;52593;42.648;23.332;2024-03-08T09:30:02;11.67;;;3.93;;
65831;SDS011;52593;42.648;23.332;2024-03-08T09:32:31;10.20;;;3.38;;
65831;SDS011;52593;42.648;23.332;2024-03-08T09:34:57;7.93;;;3.57;;
65831;SDS011;52593;42.648;23.332;2024-03-08T09:37:22;7.38;;;2.95;;
65831;SDS011;52593;42.648;23.332;2024-03-08T09:39:48;7.83;;;3.27;;
65831;SDS011;52593;42.648;23.332;2024-03-08T09:42:15;8.73;;;3.00;;
65831;SDS011;52593;42.648;23.332;2024-03-08T09:44:49;6.28;;;2.30;;
65831;SDS011;52593;42.648;23.332;2024-03-08T09:47:15;5.05;;;1.88;;
65831;SDS011;52593;42.648;23.332;2024-03-08T09:49:43;6.43;;;2.13;;
65831;SDS011;52593;42.648;23.332;2024-03-08T09:52:09;4.80;;;1.88;;
65831;SDS011;52593;42.648;23.332;2024-03-08T09:54:35;5.73;;;2.23;;
65831;SDS011;52593;42.648;23.332;2024-03-08T09:57:02;6.82;;;2.50;;
65831;SDS011;52593;42.648;23.332;2024-03-08T09:59:29;9.20;;;2.78;;
65831;SDS011;52593;42.648;23.332;2024-03-08T10:02:01;8.93;;;2.70;;
65831;SDS011;52593;42.648;23.332;2024-03-08T10:04:28;6.78;;;2.60;;
65831;SDS011;52593;42.648;23.332;2024-03-08T10:06:57;4.10;;;1.43;;
65831;SDS011;52593;42.648;23.332;2024-03-08T10:09:24;6.57;;;1.55;;
65831;SDS011;52593;42.648;23.332;2024-03-08T10:12:01;4.88;;;1.35;;
65831;SDS011;52593;42.648;23.332;2024-03-08T10:14:27;4.95;;;1.73;;
65831;SDS011;52593;42.648;23.332;2024-03-08T10:16:52;5.37;;;1.80;;
65831;SDS011;52593;42.648;23.332;2024-03-08T10:19:19;5.82;;;1.60;;
65831;SDS011;52593;42.648;23.332;2024-03-08T10:21:50;5.72;;;1.88;;
65831;SDS011;52593;42.648;23.332;2024-03-08T10:24:19;5.22;;;1.50;;
65831;SDS011;52593;42.648;23.332;2024-03-08T10:26:45;4.17;;;1.40;;
65831;SDS011;52593;42.648;23.332;2024-03-08T10:29:11;3.80;;;1.10;;
65831;SDS011;52593;42.648;23.332;2024-03-08T10:31:42;4.68;;;1.70;;
65831;SDS011;52593;42.648;23.332;2024-03-08T10:34:09;6.43;;;1.83;;
65831;SDS011;52593;42.648;23.332;2024-03-08T10:36:36;6.80;;;1.90;;
65831;SDS011;52593;42.648;23.332;2024-03-08T10:39:03;7.43;;;2.10;;
65831;SDS011;52593;42.648;23.332;2024-03-08T10:41:33;5.88;;;1.90;;
65831;SDS011;52593;42.648;23.332;2024-03-08T10:46:51;4.93;;;1.63;;
65831;SDS011;52593;42.648;23.332;2024-03-08T10:49:31;5.93;;;2.05;;
65831;SDS011;52593;42.648;23.332;2024-03-08T10:52:04;10.90;;;3.00;;
65831;SDS011;52593;42.648;23.332;2024-03-08T10:54:33;5.03;;;1.70;;
65831;SDS011;52593;42.648;23.332;2024-03-08T10:57:03;5.90;;;1.70;;
65831;SDS011;52593;42.648;23.332;2024-03-08T10:59:31;5.03;;;1.60;;
65831;SDS011;52593;42.648;23.332;2024-03-08T11:01:59;4.82;;;1.60;;
65831;SDS011;52593;42.648;23.332;2024-03-08T11:04:25;5.25;;;2.20;;
65831;SDS011;52593;42.648;23.332;2024-03-08T11:06:50;6.87;;;2.00;;
65831;SDS011;52593;42.648;23.332;2024-03-08T11:09:32;7.53;;;2.65;;
65831;SDS011;52593;42.648;23.332;2024-03-08T11:15:09;5.82;;;2.22;;
65831;SDS011;52593;42.648;23.332;2024-03-08T11:20:08;4.00;;;1.30;;
65831;SDS011;52593;42.648;23.332;2024-03-08T11:22:40;5.65;;;1.65;;
65831;SDS011;52593;42.648;23.332;2024-03-08T11:25:13;3.50;;;1.10;;
65831;SDS011;52593;42.648;23.332;2024-03-08T11:28:06;3.88;;;0.90;;
65831;SDS011;52593;42.648;23.332;2024-03-08T11:30:33;4.85;;;1.27;;
65831;SDS011;52593;42.648;23.332;2024-03-08T11:33:00;3.97;;;1.27;;
65831;SDS011;52593;42.648;23.332;2024-03-08T11:35:28;4.22;;;1.45;;
65831;SDS011;52593;42.648;23.332;2024-03-08T11:37:53;4.07;;;1.30;;
65831;SDS011;52593;42.648;23.332;2024-03-08T11:40:19;4.30;;;1.50;;
65831;SDS011;52593;42.648;23.332;2024-03-08T11:42:46;4.47;;;1.50;;
65831;SDS011;52593;42.648;23.332;2024-03-08T11:45:12;4.00;;;1.20;;
65831;SDS011;52593;42.648;23.332;2024-03-08T11:47:41;5.00;;;1.33;;
65831;SDS011;52593;42.648;23.332;2024-03-08T11:50:07;5.10;;;1.30;;
65831;SDS011;52593;42.648;23.332;2024-03-08T11:52:36;5.23;;;1.57;;
65831;SDS011;52593;42.648;23.332;2024-03-08T11:55:02;4.55;;;1.25;;
65831;SDS011;52593;42.648;23.332;2024-03-08T11:57:30;4.68;;;1.42;;
65831;SDS011;52593;42.648;23.332;2024-03-08T11:59:57;4.10;;;1.30;;
65831;SDS011;52593;42.648;23.332;2024-03-08T12:02:23;4.17;;;1.00;;
65831;SDS011;52593;42.648;23.332;2024-03-08T12:04:56;4.60;;;1.30;;
65831;SDS011;52593;42.648;23.332;2024-03-08T12:07:23;5.63;;;1.40;;
65831;SDS011;52593;42.648;23.332;2024-03-08T12:12:51;4.30;;;1.35;;
65831;SDS011;52593;42.648;23.332;2024-03-08T12:15:18;16.67;;;8.93;;
65831;SDS011;52593;42.648;23.332;2024-03-08T12:17:46;7.68;;;2.55;;
65831;SDS011;52593;42.648;23.332;2024-03-08T12:22:43;10.80;;;4.60;;
65831;SDS011;52593;42.648;23.332;2024-03-08T12:25:13;13.18;;;5.68;;
65831;SDS011;52593;42.648;23.332;2024-03-08T12:27:42;6.82;;;2.78;;
65831;SDS011;52593;42.648;23.332;2024-03-08T12:32:51;4.40;;;1.27;;
65831;SDS011;52593;42.648;23.332;2024-03-08T12:35:22;4.33;;;1.37;;
65831;SDS011;52593;42.648;23.332;2024-03-08T12:37:50;5.93;;;2.15;;
65831;SDS011;52593;42.648;23.332;2024-03-08T12:40:18;5.22;;;1.70;;
65831;SDS011;52593;42.648;23.332;2024-03-08T12:42:44;7.47;;;1.42;;
65831;SDS011;52593;42.648;23.332;2024-03-08T12:45:12;3.38;;;1.15;;
65831;SDS011;52593;42.648;23.332;2024-03-08T12:47:41;3.80;;;1.07;;
65831;SDS011;52593;42.648;23.332;2024-03-08T12:50:07;4.70;;;1.10;;
65831;SDS011;52593;42.648;23.332;2024-03-08T12:52:34;3.83;;;1.13;;
65831;SDS011;52593;42.648;23.332;2024-03-08T12:55:00;6.80;;;1.10;;
65831;SDS011;52593;42.648;23.332;2024-03-08T12:57:28;4.43;;;1.00;;
65831;SDS011;52593;42.648;23.332;2024-03-08T12:59:54;3.40;;;1.17;;
65831;SDS011;52593;42.648;23.332;2024-03-08T13:02:19;4.67;;;1.23;;
65831;SDS011;52593;42.648;23.332;2024-03-08T13:04:46;3.85;;;1.10;;
65831;SDS011;52593;42.648;23.332;2024-03-08T13:07:20;3.72;;;1.10;;
65831;SDS011;52593;42.648;23.332;2024-03-08T13:09:46;4.00;;;1.00;;
65831;SDS011;52593;42.648;23.332;2024-03-08T13:12:12;3.37;;;1.10;;
65831;SDS011;52593;42.648;23.332;2024-03-08T13:14:37;3.40;;;1.00;;
65831;SDS011;52593;42.648;23.332;2024-03-08T13:17:05;3.88;;;1.10;;
65831;SDS011;52593;42.648;23.332;2024-03-08T13:19:35;8.02;;;1.50;;
65831;SDS011;52593;42.648;23.332;2024-03-08T13:22:01;4.00;;;1.00;;
65831;SDS011;52593;42.648;23.332;2024-03-08T13:24:29;4.22;;;1.20;;
65831;SDS011;52593;42.648;23.332;2024-03-08T13:26:55;3.30;;;1.00;;
65831;SDS011;52593;42.648;23.332;2024-03-08T13:29:21;5.37;;;1.50;;
65831;SDS011;52593;42.648;23.332;2024-03-08T13:31:48;6.78;;;1.20;;
65831;SDS011;52593;42.648;23.332;2024-03-08T13:34:17;4.35;;;1.20;;
65831;SDS011;52593;42.648;23.332;2024-03-08T13:36:43;3.60;;;1.00;;
65831;SDS011;52593;42.648;23.332;2024-03-08T13:39:09;3.60;;;1.10;;
65831;SDS011;52593;42.648;23.332;2024-03-08T13:41:41;3.35;;;0.88;;
65831;SDS011;52593;42.648;23.332;2024-03-08T13:44:07;4.28;;;1.27;;
65831;SDS011;52593;42.648;23.332;2024-03-08T13:46:32;8.25;;;1.20;;
65831;SDS011;52593;42.648;23.332;2024-03-08T13:49:03;3.73;;;1.23;;
65831;SDS011;52593;42.648;23.332;2024-03-08T13:51:34;3.88;;;1.00;;
65831;SDS011;52593;42.648;23.332;2024-03-08T13:54:01;4.85;;;1.30;;
65831;SDS011;52593;42.648;23.332;2024-03-08T13:56:29;4.60;;;1.20;;
65831;SDS011;52593;42.648;23.332;2024-03-08T13:58:56;3.50;;;1.13;;
65831;SDS011;52593;42.648;23.332;2024-03-08T14:01:22;5.28;;;1.40;;
65831;SDS011;52593;42.648;23.332;2024-03-08T14:03:48;3.87;;;1.03;;
65831;SDS011;52593;42.648;23.332;2024-03-08T14:06:13;3.97;;;1.20;;
65831;SDS011;52593;42.648;23.332;2024-03-08T14:08:39;3.77;;;0.90;;
65831;SDS011;52593;42.648;23.332;2024-03-08T14:11:05;5.18;;;1.17;;
65831;SDS011;52593;42.648;23.332;2024-03-08T14:13:44;4.13;;;1.08;;
65831;SDS011;52593;42.648;23.332;2024-03-08T14:16:13;7.83;;;2.30;;
65831;SDS011;52593;42.648;23.332;2024-03-08T14:18:38;10.38;;;1.67;;
65831;SDS011;52593;42.648;23.332;2024-03-08T14:21:04;4.77;;;1.70;;
65831;SDS011;52593;42.648;23.332;2024-03-08T14:23:30;5.35;;;1.40;;
65831;SDS011;52593;42.648;23.332;2024-03-08T14:25:56;4.07;;;1.00;;
65831;SDS011;52593;42.648;23.332;2024-03-08T14:28:24;4.30;;;1.10;;
65831;SDS011;52593;42.648;23.332;2024-03-08T14:30:52;6.57;;;1.20;;
65831;SDS011;52593;42.648;23.332;2024-03-08T14:33:18;3.95;;;1.25;;
65831;SDS011;52593;42.648;23.332;2024-03-08T14:35:44;2.93;;;0.83;;
65831;SDS011;52593;42.648;23.332;2024-03-08T14:38:11;4.63;;;1.40;;
65831;SDS011;52593;42.648;23.332;2024-03-08T14:40:37;8.55;;;1.40;;
65831;SDS011;52593;42.648;23.332;2024-03-08T14:43:03;4.10;;;1.23;;
65831;SDS011;52593;42.648;23.332;2024-03-08T14:45:29;4.10;;;1.10;;
65831;SDS011;52593;42.648;23.332;2024-03-08T14:47:55;6.28;;;1.55;;